sensor_id;sensor_type;location;lat;lon;timestamp;pressure;altitude;pressure_sealevel;temperature;humidity
75938;BME280;64615;32.062;34.834;2023-07-30T00:01:53;100036.44;;;28.61;58.80
75938;BME280;64615;32.062;34.834;2023-07-30T00:04:19;100035.63;;;28.61;58.55
75938;BME280;64615;32.062;34.834;2023-07-30T00:06:46;100027.72;;;28.59;58.79
75938;BME280;64615;32.062;34.834;2023-07-30T00:09:12;100038.69;;;28.59;58.65
75938;BME280;64615;32.062;34.834;2023-07-30T00:11:37;100025.28;;;28.58;58.82
75938;BME280;64615;32.062;34.834;2023-07-30T00:14:03;100037.41;;;28.57;58.64
75938;BME280;64615;32.062;34.834;2023-07-30T00:16:29;100030.28;;;28.56;58.83
75938;BME280;64615;32.062;34.834;2023-07-30T00:18:54;100032.22;;;28.55;58.82
75938;BME280;64615;32.062;34.834;2023-07-30T00:21:20;100030.59;;;28.54;58.96
75938;BME280;64615;32.062;34.834;2023-07-30T00:23:45;100027.06;;;28.54;58.95
75938;BME280;64615;32.062;34.834;2023-07-30T00:26:11;100030.59;;;28.54;59.00
75938;BME280;64615;32.062;34.834;2023-07-30T00:28:37;100037.69;;;28.55;58.98
75938;BME280;64615;32.062;34.834;2023-07-30T00:31:02;100031.09;;;28.56;59.01
75938;BME280;64615;32.062;34.834;2023-07-30T00:33:28;100036.25;;;28.58;58.95
75938;BME280;64615;32.062;34.834;2023-07-30T00:35:53;100034.66;;;28.57;58.93
75938;BME280;64615;32.062;34.834;2023-07-30T00:38:19;100031.09;;;28.56;59.06
75938;BME280;64615;32.062;34.834;2023-07-30T00:40:45;100025.94;;;28.55;58.96
75938;BME280;64615;32.062;34.834;2023-07-30T00:43:11;100031.72;;;28.53;59.12
75938;BME280;64615;32.062;34.834;2023-07-30T00:45:40;100028.16;;;28.53;59.06
75938;BME280;64615;32.062;34.834;2023-07-30T00:48:06;100028.16;;;28.53;58.79
75938;BME280;64615;32.062;34.834;2023-07-30T00:50:32;100026.25;;;28.53;59.16
75938;BME280;64615;32.062;34.834;2023-07-30T00:52:58;100022.38;;;28.54;58.83
75938;BME280;64615;32.062;34.834;2023-07-30T00:55:24;100024.81;;;28.56;58.87
75938;BME280;64615;32.062;34.834;2023-07-30T00:57:50;100022.09;;;28.56;58.86
75938;BME280;64615;32.062;34.834;2023-07-30T01:00:17;100021.78;;;28.57;59.00
75938;BME280;64615;32.062;34.834;2023-07-30T01:02:43;100024.50;;;28.57;58.77
75938;BME280;64615;32.062;34.834;2023-07-30T01:05:09;100017.88;;;28.58;58.73
75938;BME280;64615;32.062;34.834;2023-07-30T01:07:34;100015.16;;;28.58;58.94
75938;BME280;64615;32.062;34.834;2023-07-30T01:10:00;100017.88;;;28.58;58.85
75938;BME280;64615;32.062;34.834;2023-07-30T01:12:29;100018.69;;;28.59;58.82
75938;BME280;64615;32.062;34.834;2023-07-30T01:14:56;100014.34;;;28.58;59.07
75938;BME280;64615;32.062;34.834;2023-07-30T01:17:22;100013.22;;;28.59;58.94
75938;BME280;64615;32.062;34.834;2023-07-30T01:19:48;100009.66;;;28.58;58.96
75938;BME280;64615;32.062;34.834;2023-07-30T01:22:19;100013.22;;;28.59;58.92
75938;BME280;64615;32.062;34.834;2023-07-30T01:24:46;100015.97;;;28.59;58.89
75938;BME280;64615;32.062;34.834;2023-07-30T01:27:22;100024.19;;;28.59;58.97
75938;BME280;64615;32.062;34.834;2023-07-30T01:30:27;100010.00;;;28.57;58.90
75938;BME280;64615;32.062;34.834;2023-07-30T01:32:53;100012.75;;;28.57;58.85
75938;BME280;64615;32.062;34.834;2023-07-30T01:35:26;100017.06;;;28.58;59.00
75938;BME280;64615;32.062;34.834;2023-07-30T01:37:52;100014.34;;;28.58;59.18
75938;BME280;64615;32.062;34.834;2023-07-30T01:40:19;100017.06;;;28.58;59.10
75938;BME280;64615;32.062;34.834;2023-07-30T01:42:45;100026.91;;;28.59;58.98
75938;BME280;64615;32.062;34.834;2023-07-30T01:45:11;100015.97;;;28.59;58.81
75938;BME280;64615;32.062;34.834;2023-07-30T01:47:36;100019.81;;;28.58;59.01
75938;BME280;64615;32.062;34.834;2023-07-30T01:50:02;100022.56;;;28.58;58.93
75938;BME280;64615;32.062;34.834;2023-07-30T01:52:28;100026.91;;;28.59;58.87
75938;BME280;64615;32.062;34.834;2023-07-30T01:54:54;100019.81;;;28.58;58.86
75938;BME280;64615;32.062;34.834;2023-07-30T01:57:21;100024.50;;;28.57;59.00
75938;BME280;64615;32.062;34.834;2023-07-30T01:59:47;100021.28;;;28.55;58.82
75938;BME280;64615;32.062;34.834;2023-07-30T02:02:12;100029.78;;;28.54;59.17
75938;BME280;64615;32.062;34.834;2023-07-30T02:04:38;100021.91;;;28.52;58.97
75938;BME280;64615;32.062;34.834;2023-07-30T02:07:04;100026.56;;;28.52;59.02
75938;BME280;64615;32.062;34.834;2023-07-30T02:09:29;100031.25;;;28.51;59.09
75938;BME280;64615;32.062;34.834;2023-07-30T02:11:55;100019.47;;;28.51;59.01
75938;BME280;64615;32.062;34.834;2023-07-30T02:14:21;100018.38;;;28.52;58.97
75938;BME280;64615;32.062;34.834;2023-07-30T02:16:46;100023.50;;;28.53;59.01
75938;BME280;64615;32.062;34.834;2023-07-30T02:19:12;100027.88;;;28.54;58.97
75938;BME280;64615;32.062;34.834;2023-07-30T02:21:38;100015.78;;;28.55;59.01
75938;BME280;64615;32.062;34.834;2023-07-30T02:24:10;100020.75;;;28.53;58.80
75938;BME280;64615;32.062;34.834;2023-07-30T02:26:39;100021.28;;;28.55;59.15
75938;BME280;64615;32.062;34.834;2023-07-30T02:29:05;100023.50;;;28.53;59.12
75938;BME280;64615;32.062;34.834;2023-07-30T02:31:31;100026.56;;;28.52;59.02
75938;BME280;64615;32.062;34.834;2023-07-30T02:33:57;100018.38;;;28.52;59.10
75938;BME280;64615;32.062;34.834;2023-07-30T02:36:23;100028.16;;;28.53;59.09
75938;BME280;64615;32.062;34.834;2023-07-30T02:38:49;100026.25;;;28.53;59.00
75938;BME280;64615;32.062;34.834;2023-07-30T02:41:16;100025.13;;;28.54;59.14
75938;BME280;64615;32.062;34.834;2023-07-30T02:43:41;100029.31;;;28.52;59.05
75938;BME280;64615;32.062;34.834;2023-07-30T02:46:07;100026.88;;;28.50;58.73
75938;BME280;64615;32.062;34.834;2023-07-30T02:48:33;100030.44;;;28.51;59.02
75938;BME280;64615;32.062;34.834;2023-07-30T02:50:58;100029.31;;;28.52;59.06
75938;BME280;64615;32.062;34.834;2023-07-30T02:53:24;100028.50;;;28.51;58.98
75938;BME280;64615;32.062;34.834;2023-07-30T02:55:50;100026.56;;;28.52;58.86
75938;BME280;64615;32.062;34.834;2023-07-30T02:58:15;100030.91;;;28.53;58.99
75938;BME280;64615;32.062;34.834;2023-07-30T03:00:41;100033.66;;;28.53;58.99
75938;BME280;64615;32.062;34.834;2023-07-30T03:03:07;100028.16;;;28.53;58.76
75938;BME280;64615;32.062;34.834;2023-07-30T03:05:32;100034.78;;;28.52;58.94
75938;BME280;64615;32.062;34.834;2023-07-30T03:07:58;100033.97;;;28.51;59.10
75938;BME280;64615;32.062;34.834;2023-07-30T03:10:23;100035.41;;;28.49;59.01
75938;BME280;64615;32.062;34.834;2023-07-30T03:12:49;100031.03;;;28.48;59.20
75938;BME280;64615;32.062;34.834;2023-07-30T03:15:15;100042.00;;;28.48;59.03
75938;BME280;64615;32.062;34.834;2023-07-30T03:17:40;100034.13;;;28.46;59.07
75938;BME280;64615;32.062;34.834;2023-07-30T03:20:06;100040.41;;;28.47;58.79
75938;BME280;64615;32.062;34.834;2023-07-30T03:22:32;100034.44;;;28.45;58.96
75938;BME280;64615;32.062;34.834;2023-07-30T03:24:58;100034.44;;;28.45;59.32
75938;BME280;64615;32.062;34.834;2023-07-30T03:27:23;100033.63;;;28.44;59.34
75938;BME280;64615;32.062;34.834;2023-07-30T03:29:49;100043.44;;;28.45;59.01
75938;BME280;64615;32.062;34.834;2023-07-30T03:32:15;100040.41;;;28.47;59.41
75938;BME280;64615;32.062;34.834;2023-07-30T03:34:40;100038.44;;;28.47;59.07
75938;BME280;64615;32.062;34.834;2023-07-30T03:37:06;100046.34;;;28.49;58.92
75938;BME280;64615;32.062;34.834;2023-07-30T03:39:31;100045.75;;;28.52;59.10
75938;BME280;64615;32.062;34.834;2023-07-30T03:41:57;100050.88;;;28.53;59.09
75938;BME280;64615;32.062;34.834;2023-07-30T03:44:23;100056.88;;;28.55;58.98
75938;BME280;64615;32.062;34.834;2023-07-30T03:46:48;100051.91;;;28.57;58.81
75938;BME280;64615;32.062;34.834;2023-07-30T03:49:14;100058.16;;;28.58;58.86
75938;BME280;64615;32.062;34.834;2023-07-30T03:51:40;100057.84;;;28.59;58.69
75938;BME280;64615;32.062;34.834;2023-07-30T03:54:06;100068.50;;;28.61;58.60
75938;BME280;64615;32.062;34.834;2023-07-30T03:56:32;100061.91;;;28.62;58.62
75938;BME280;64615;32.062;34.834;2023-07-30T03:58:57;100068.19;;;28.62;58.72
75938;BME280;64615;32.062;34.834;2023-07-30T04:01:23;100063.50;;;28.63;58.78
75938;BME280;64615;32.062;34.834;2023-07-30T04:03:49;100067.84;;;28.64;58.63
75938;BME280;64615;32.062;34.834;2023-07-30T04:06:14;100062.38;;;28.64;58.56
75938;BME280;64615;32.062;34.834;2023-07-30T04:08:40;100067.25;;;28.67;58.85
75938;BME280;64615;32.062;34.834;2023-07-30T04:11:05;100073.19;;;28.69;58.74
75938;BME280;64615;32.062;34.834;2023-07-30T04:13:31;100071.28;;;28.70;58.62
75938;BME280;64615;32.062;34.834;2023-07-30T04:15:57;100071.78;;;28.72;58.46
75938;BME280;64615;32.062;34.834;2023-07-30T04:18:22;100082.47;;;28.73;58.19
75938;BME280;64615;32.062;34.834;2023-07-30T04:20:48;100081.81;;;28.76;58.62
75938;BME280;64615;32.062;34.834;2023-07-30T04:23:14;100081.81;;;28.76;58.29
75938;BME280;64615;32.062;34.834;2023-07-30T04:25:39;100086.34;;;28.81;57.92
75938;BME280;64615;32.062;34.834;2023-07-30T04:28:05;100084.94;;;28.83;57.92
75938;BME280;64615;32.062;34.834;2023-07-30T04:30:32;100087.84;;;28.87;58.09
75938;BME280;64615;32.062;34.834;2023-07-30T04:32:58;100083.97;;;28.88;58.07
75938;BME280;64615;32.062;34.834;2023-07-30T04:35:23;100085.25;;;28.90;57.82
75938;BME280;64615;32.062;34.834;2023-07-30T04:37:49;100086.56;;;28.93;57.64
75938;BME280;64615;32.062;34.834;2023-07-30T04:40:14;100087.84;;;28.95;57.89
75938;BME280;64615;32.062;34.834;2023-07-30T04:42:40;100093.03;;;28.97;57.63
75938;BME280;64615;32.062;34.834;2023-07-30T04:45:06;100100.28;;;29.01;57.81
75938;BME280;64615;32.062;34.834;2023-07-30T04:47:32;100093.38;;;29.04;57.70
75938;BME280;64615;32.062;34.834;2023-07-30T04:49:58;100095.47;;;29.07;57.63
75938;BME280;64615;32.062;34.834;2023-07-30T04:52:23;100093.56;;;29.08;57.40
75938;BME280;64615;32.062;34.834;2023-07-30T04:54:49;100097.41;;;29.06;57.13
75938;BME280;64615;32.062;34.834;2023-07-30T04:57:14;100089.69;;;29.09;57.49
75938;BME280;64615;32.062;34.834;2023-07-30T04:59:40;100096.16;;;29.13;57.52
75938;BME280;64615;32.062;34.834;2023-07-30T05:02:06;100092.28;;;29.14;57.46
75938;BME280;64615;32.062;34.834;2023-07-30T05:04:31;100093.25;;;29.18;57.07
75938;BME280;64615;32.062;34.834;2023-07-30T05:06:57;100090.53;;;29.18;57.43
75938;BME280;64615;32.062;34.834;2023-07-30T05:09:23;100094.38;;;29.17;57.09
75938;BME280;64615;32.062;34.834;2023-07-30T05:11:48;100090.53;;;29.18;57.38
75938;BME280;64615;32.062;34.834;2023-07-30T05:14:14;100084.72;;;29.19;57.19
75938;BME280;64615;32.062;34.834;2023-07-30T05:16:39;100092.63;;;29.21;57.00
75938;BME280;64615;32.062;34.834;2023-07-30T05:19:05;100087.94;;;29.21;57.31
75938;BME280;64615;32.062;34.834;2023-07-30T05:21:31;100090.38;;;29.23;56.94
75938;BME280;64615;32.062;34.834;2023-07-30T05:23:57;100094.75;;;29.24;57.00
75938;BME280;64615;32.062;34.834;2023-07-30T05:26:22;100101.03;;;29.24;56.84
75938;BME280;64615;32.062;34.834;2023-07-30T05:28:48;100090.88;;;29.25;56.85
75938;BME280;64615;32.062;34.834;2023-07-30T05:31:14;100096.38;;;29.25;57.03
75938;BME280;64615;32.062;34.834;2023-07-30T05:33:39;100094.44;;;29.25;56.81
75938;BME280;64615;32.062;34.834;2023-07-30T05:36:05;100095.22;;;29.26;57.08
75938;BME280;64615;32.062;34.834;2023-07-30T05:38:31;100093.78;;;29.28;56.98
75938;BME280;64615;32.062;34.834;2023-07-30T05:40:57;100084.75;;;29.28;56.67
75938;BME280;64615;32.062;34.834;2023-07-30T05:43:22;100089.09;;;29.29;56.72
75938;BME280;64615;32.062;34.834;2023-07-30T05:45:48;100096.22;;;29.30;56.90
75938;BME280;64615;32.062;34.834;2023-07-30T05:48:14;100093.97;;;29.32;56.63
75938;BME280;64615;32.062;34.834;2023-07-30T05:50:39;100103.81;;;29.33;56.68
75938;BME280;64615;32.062;34.834;2023-07-30T05:53:05;100090.13;;;29.33;56.75
75938;BME280;64615;32.062;34.834;2023-07-30T05:55:31;100099.97;;;29.34;56.72
75938;BME280;64615;32.062;34.834;2023-07-30T05:57:56;100104.94;;;29.32;56.84
75938;BME280;64615;32.062;34.834;2023-07-30T06:00:22;100104.94;;;29.32;56.58
75938;BME280;64615;32.062;34.834;2023-07-30T06:02:47;100110.72;;;29.30;56.87
75938;BME280;64615;32.062;34.834;2023-07-30T06:05:13;100111.84;;;29.29;57.05
75938;BME280;64615;32.062;34.834;2023-07-30T06:07:39;100113.28;;;29.27;56.77
75938;BME280;64615;32.062;34.834;2023-07-30T06:10:05;100105.06;;;29.27;56.73
75938;BME280;64615;32.062;34.834;2023-07-30T06:12:30;100109.72;;;29.26;57.13
75938;BME280;64615;32.062;34.834;2023-07-30T06:14:56;100107.31;;;29.25;56.98
75938;BME280;64615;32.062;34.834;2023-07-30T06:17:22;100101.84;;;29.25;57.01
75938;BME280;64615;32.062;34.834;2023-07-30T06:19:47;100103.78;;;29.24;57.11
75938;BME280;64615;32.062;34.834;2023-07-30T06:22:13;100101.34;;;29.23;56.99
75938;BME280;64615;32.062;34.834;2023-07-30T06:24:38;100112.63;;;29.21;57.27
75938;BME280;64615;32.062;34.834;2023-07-30T06:27:04;100118.09;;;29.21;56.86
75938;BME280;64615;32.062;34.834;2023-07-30T06:29:30;100105.84;;;29.19;57.13
75938;BME280;64615;32.062;34.834;2023-07-30T06:31:56;100101.50;;;29.18;57.00
75938;BME280;64615;32.062;34.834;2023-07-30T06:34:21;100098.75;;;29.18;57.29
75938;BME280;64615;32.062;34.834;2023-07-30T06:36:47;100097.13;;;29.17;57.11
75938;BME280;64615;32.062;34.834;2023-07-30T06:39:13;100103.72;;;29.16;57.13
75938;BME280;64615;32.062;34.834;2023-07-30T06:41:38;100103.25;;;29.14;57.13
75938;BME280;64615;32.062;34.834;2023-07-30T06:44:04;100107.94;;;29.13;57.12
75938;BME280;64615;32.062;34.834;2023-07-30T06:46:29;100104.38;;;29.13;56.99
75938;BME280;64615;32.062;34.834;2023-07-30T06:48:55;100106.63;;;29.11;57.33
75938;BME280;64615;32.062;34.834;2023-07-30T06:51:24;100103.56;;;29.12;57.21
75938;BME280;64615;32.062;34.834;2023-07-30T06:53:49;100102.75;;;29.12;56.98
75938;BME280;64615;32.062;34.834;2023-07-30T06:56:15;100106.00;;;29.14;57.34
75938;BME280;64615;32.062;34.834;2023-07-30T06:58:41;100106.31;;;29.12;57.14
75938;BME280;64615;32.062;34.834;2023-07-30T07:01:06;100101.63;;;29.13;57.08
75938;BME280;64615;32.062;34.834;2023-07-30T07:03:32;100099.53;;;29.10;57.39
75938;BME280;64615;32.062;34.834;2023-07-30T07:05:58;100110.16;;;29.11;57.22
75938;BME280;64615;32.062;34.834;2023-07-30T07:08:23;100109.34;;;29.11;57.33
75938;BME280;64615;32.062;34.834;2023-07-30T07:10:49;100094.53;;;29.12;57.27
75938;BME280;64615;32.062;34.834;2023-07-30T07:13:15;100109.56;;;29.14;56.84
75938;BME280;64615;32.062;34.834;2023-07-30T07:15:42;100104.38;;;29.13;57.15
75938;BME280;64615;32.062;34.834;2023-07-30T07:18:08;100106.31;;;29.12;56.80
75938;BME280;64615;32.062;34.834;2023-07-30T07:20:34;100100.81;;;29.12;56.87
75938;BME280;64615;32.062;34.834;2023-07-30T07:22:59;100097.56;;;29.10;56.76
75938;BME280;64615;32.062;34.834;2023-07-30T07:25:25;100091.78;;;29.12;56.71
75938;BME280;64615;32.062;34.834;2023-07-30T07:27:50;100096.97;;;29.13;56.97
75938;BME280;64615;32.062;34.834;2023-07-30T07:30:16;100089.03;;;29.12;56.75
75938;BME280;64615;32.062;34.834;2023-07-30T07:32:42;100094.53;;;29.12;57.09
75938;BME280;64615;32.062;34.834;2023-07-30T07:35:08;100092.91;;;29.11;57.05
75938;BME280;64615;32.062;34.834;2023-07-30T07:37:34;100084.22;;;29.09;56.97
75938;BME280;64615;32.062;34.834;2023-07-30T07:40:00;100088.06;;;29.08;57.00
75938;BME280;64615;32.062;34.834;2023-07-30T07:42:25;100088.06;;;29.08;56.94
75938;BME280;64615;32.062;34.834;2023-07-30T07:44:51;100082.59;;;29.08;56.88
75938;BME280;64615;32.062;34.834;2023-07-30T07:47:16;100086.16;;;29.08;57.07
75938;BME280;64615;32.062;34.834;2023-07-30T07:49:42;100082.75;;;29.11;56.96
75938;BME280;64615;32.062;34.834;2023-07-30T07:52:08;100076.47;;;29.11;56.90
75938;BME280;64615;32.062;34.834;2023-07-30T07:54:34;100077.09;;;29.08;56.79
75938;BME280;64615;32.062;34.834;2023-07-30T07:57:00;100084.38;;;29.12;56.72
75938;BME280;64615;32.062;34.834;2023-07-30T07:59:25;100071.47;;;29.13;56.83
75938;BME280;64615;32.062;34.834;2023-07-30T08:01:53;100080.53;;;29.13;56.42
75938;BME280;64615;32.062;34.834;2023-07-30T08:04:19;100068.75;;;29.13;56.98
75938;BME280;64615;32.062;34.834;2023-07-30T08:06:47;100077.28;;;29.11;56.88
75938;BME280;64615;32.062;34.834;2023-07-30T08:09:12;100079.53;;;29.09;56.81
75938;BME280;64615;32.062;34.834;2023-07-30T08:11:38;100076.00;;;29.09;56.83
75938;BME280;64615;32.062;34.834;2023-07-30T08:14:04;100073.25;;;29.09;56.70
75938;BME280;64615;32.062;34.834;2023-07-30T08:16:29;100067.78;;;29.09;56.94
75938;BME280;64615;32.062;34.834;2023-07-30T08:18:55;100077.63;;;29.10;57.18
75938;BME280;64615;32.062;34.834;2023-07-30T08:21:21;100071.31;;;29.09;56.80
75938;BME280;64615;32.062;34.834;2023-07-30T08:23:46;100066.66;;;29.10;56.77
75938;BME280;64615;32.062;34.834;2023-07-30T08:26:12;100070.97;;;29.11;56.68
75938;BME280;64615;32.062;34.834;2023-07-30T08:28:38;100066.31;;;29.11;56.85
75938;BME280;64615;32.062;34.834;2023-07-30T08:31:03;100060.81;;;29.11;56.80
75938;BME280;64615;32.062;34.834;2023-07-30T08:33:29;100059.72;;;29.12;56.69
75938;BME280;64615;32.062;34.834;2023-07-30T08:35:59;100061.34;;;29.13;56.87
75938;BME280;64615;32.062;34.834;2023-07-30T08:38:25;100061.34;;;29.13;56.90
75938;BME280;64615;32.062;34.834;2023-07-30T08:40:51;100056.16;;;29.12;56.90
75938;BME280;64615;32.062;34.834;2023-07-30T08:43:20;100054.53;;;29.11;57.24
75938;BME280;64615;32.062;34.834;2023-07-30T08:45:46;100045.84;;;29.09;56.94
75938;BME280;64615;32.062;34.834;2023-07-30T08:48:11;100036.00;;;29.08;57.36
75938;BME280;64615;32.062;34.834;2023-07-30T08:50:37;100035.19;;;29.07;57.22
75938;BME280;64615;32.062;34.834;2023-07-30T08:53:04;100040.16;;;29.05;56.99
75938;BME280;64615;32.062;34.834;2023-07-30T08:55:33;100041.47;;;29.08;57.17
75938;BME280;64615;32.062;34.834;2023-07-30T08:58:04;100037.13;;;29.06;57.24
75938;BME280;64615;32.062;34.834;2023-07-30T09:00:31;100037.44;;;29.05;57.11
75938;BME280;64615;32.062;34.834;2023-07-30T09:03:00;100039.56;;;29.08;57.35
75938;BME280;64615;32.062;34.834;2023-07-30T09:05:26;100036.00;;;29.08;57.11
75938;BME280;64615;32.062;34.834;2023-07-30T09:07:58;100038.44;;;29.09;57.32
75938;BME280;64615;32.062;34.834;2023-07-30T09:10:25;100024.72;;;29.09;57.51
75938;BME280;64615;32.062;34.834;2023-07-30T09:12:56;100023.91;;;29.09;57.36
75938;BME280;64615;32.062;34.834;2023-07-30T09:15:36;100029.41;;;29.09;57.18
75938;BME280;64615;32.062;34.834;2023-07-30T09:18:04;100016.81;;;29.08;57.25
75938;BME280;64615;32.062;34.834;2023-07-30T09:20:40;100021.19;;;29.09;57.48
75938;BME280;64615;32.062;34.834;2023-07-30T09:23:06;100019.88;;;29.06;57.21
75938;BME280;64615;32.062;34.834;2023-07-30T09:25:33;100020.22;;;29.04;57.34
75938;BME280;64615;32.062;34.834;2023-07-30T09:27:59;100027.63;;;29.04;57.40
75938;BME280;64615;32.062;34.834;2023-07-30T09:30:25;100026.00;;;29.03;57.29
75938;BME280;64615;32.062;34.834;2023-07-30T09:32:56;100023.56;;;29.01;57.57
75938;BME280;64615;32.062;34.834;2023-07-30T09:35:23;100018.91;;;29.02;57.31
75938;BME280;64615;32.062;34.834;2023-07-30T09:38:02;100017.28;;;29.01;57.46
75938;BME280;64615;32.062;34.834;2023-07-30T09:40:35;100009.06;;;29.01;57.58
75938;BME280;64615;32.062;34.834;2023-07-30T09:43:03;100005.50;;;29.00;57.44
75938;BME280;64615;32.062;34.834;2023-07-30T09:45:33;100010.16;;;29.00;57.80
75938;BME280;64615;32.062;34.834;2023-07-30T09:48:02;100004.69;;;29.00;57.74
75938;BME280;64615;32.062;34.834;2023-07-30T09:50:29;99995.34;;;29.01;57.72
75938;BME280;64615;32.062;34.834;2023-07-30T09:52:56;99994.53;;;29.00;57.63
75938;BME280;64615;32.062;34.834;2023-07-30T09:55:23;99992.31;;;29.02;57.21
75938;BME280;64615;32.062;34.834;2023-07-30T09:57:49;99987.63;;;29.03;57.58
75938;BME280;64615;32.062;34.834;2023-07-30T10:00:14;99987.63;;;29.03;57.51
75938;BME280;64615;32.062;34.834;2023-07-30T10:02:46;99992.81;;;29.04;57.53
75938;BME280;64615;32.062;34.834;2023-07-30T10:05:19;99988.44;;;29.03;57.33
75938;BME280;64615;32.062;34.834;2023-07-30T10:08:04;99991.19;;;29.03;57.31
75938;BME280;64615;32.062;34.834;2023-07-30T10:10:31;99991.19;;;29.03;57.20
75938;BME280;64615;32.062;34.834;2023-07-30T10:13:00;99990.38;;;29.03;57.51
75938;BME280;64615;32.062;34.834;2023-07-30T10:15:26;99986.00;;;29.02;57.54
75938;BME280;64615;32.062;34.834;2023-07-30T10:17:52;99982.78;;;29.00;57.45
75938;BME280;64615;32.062;34.834;2023-07-30T10:22:45;99990.53;;;28.98;57.63
75938;BME280;64615;32.062;34.834;2023-07-30T10:25:12;99982.59;;;28.96;57.64
75938;BME280;64615;32.062;34.834;2023-07-30T10:27:40;99979.06;;;28.96;57.89
75938;BME280;64615;32.062;34.834;2023-07-30T10:30:13;99978.25;;;28.95;57.63
75938;BME280;64615;32.062;34.834;2023-07-30T10:32:42;99980.19;;;28.95;57.70
75938;BME280;64615;32.062;34.834;2023-07-30T10:35:38;99971.50;;;28.93;57.93
75938;BME280;64615;32.062;34.834;2023-07-30T10:38:28;99965.34;;;28.96;57.75
75938;BME280;64615;32.062;34.834;2023-07-30T10:41:14;99977.13;;;28.96;57.86
75938;BME280;64615;32.062;34.834;2023-07-30T10:43:48;99965.34;;;28.96;57.75
75938;BME280;64615;32.062;34.834;2023-07-30T10:46:17;99968.09;;;28.96;58.09
75938;BME280;64615;32.062;34.834;2023-07-30T10:48:44;99969.22;;;28.95;57.95
75938;BME280;64615;32.062;34.834;2023-07-30T10:51:12;99969.22;;;28.95;57.64
75938;BME280;64615;32.062;34.834;2023-07-30T10:53:38;99966.97;;;28.97;58.02
75938;BME280;64615;32.062;34.834;2023-07-30T10:56:09;99968.59;;;28.98;57.40
75938;BME280;64615;32.062;34.834;2023-07-30T10:58:36;99962.47;;;29.01;57.79
75938;BME280;64615;32.062;34.834;2023-07-30T11:01:03;99968.28;;;28.99;57.44
75938;BME280;64615;32.062;34.834;2023-07-30T11:03:29;99967.78;;;28.97;57.86
75938;BME280;64615;32.062;34.834;2023-07-30T11:05:57;99966.16;;;28.96;57.49
75938;BME280;64615;32.062;34.834;2023-07-30T11:08:36;99951.97;;;28.94;57.68
75938;BME280;64615;32.062;34.834;2023-07-30T11:11:02;99954.25;;;28.92;58.03
75938;BME280;64615;32.062;34.834;2023-07-30T11:13:28;99948.75;;;28.92;58.25
75938;BME280;64615;32.062;34.834;2023-07-30T11:15:54;99949.88;;;28.91;57.83
75938;BME280;64615;32.062;34.834;2023-07-30T11:18:19;99957.28;;;28.91;58.11
75938;BME280;64615;32.062;34.834;2023-07-30T11:20:45;99957.28;;;28.91;57.77
75938;BME280;64615;32.062;34.834;2023-07-30T11:23:21;99955.34;;;28.91;57.95
75938;BME280;64615;32.062;34.834;2023-07-30T11:25:48;99962.78;;;28.91;58.02
75938;BME280;64615;32.062;34.834;2023-07-30T11:28:26;99951.00;;;28.90;57.84
75938;BME280;64615;32.062;34.834;2023-07-30T11:30:52;99949.88;;;28.91;58.10
75938;BME280;64615;32.062;34.834;2023-07-30T11:33:18;99937.81;;;28.92;57.82
75938;BME280;64615;32.062;34.834;2023-07-30T11:35:44;99950.38;;;28.93;57.89
75938;BME280;64615;32.062;34.834;2023-07-30T11:38:10;99944.41;;;28.91;57.99
75938;BME280;64615;32.062;34.834;2023-07-30T11:40:36;99951.50;;;28.92;57.99
75938;BME280;64615;32.062;34.834;2023-07-30T11:43:02;99948.25;;;28.90;57.75
75938;BME280;64615;32.062;34.834;2023-07-30T11:45:29;99944.72;;;28.90;57.82
75938;BME280;64615;32.062;34.834;2023-07-30T11:48:05;99943.13;;;28.89;58.04
75938;BME280;64615;32.062;34.834;2023-07-30T11:50:47;99937.94;;;28.87;57.93
75938;BME280;64615;32.062;34.834;2023-07-30T11:53:14;99938.41;;;28.89;58.28
75938;BME280;64615;32.062;34.834;2023-07-30T11:55:41;99946.63;;;28.89;58.05
75938;BME280;64615;32.062;34.834;2023-07-30T11:58:07;99941.16;;;28.89;57.92
75938;BME280;64615;32.062;34.834;2023-07-30T12:00:33;99945.06;;;28.88;57.86
75938;BME280;64615;32.062;34.834;2023-07-30T12:03:08;99939.56;;;28.88;57.85
75938;BME280;64615;32.062;34.834;2023-07-30T12:05:35;99941.50;;;28.88;58.02
75938;BME280;64615;32.062;34.834;2023-07-30T12:08:03;99943.13;;;28.89;58.12
75938;BME280;64615;32.062;34.834;2023-07-30T12:10:45;99939.06;;;28.86;58.22
75938;BME280;64615;32.062;34.834;2023-07-30T12:13:13;99939.06;;;28.86;58.06
75938;BME280;64615;32.062;34.834;2023-07-30T12:15:55;99935.06;;;28.84;58.11
75938;BME280;64615;32.062;34.834;2023-07-30T12:18:22;99935.84;;;28.84;58.05
75938;BME280;64615;32.062;34.834;2023-07-30T12:20:49;99932.31;;;28.84;58.15
75938;BME280;64615;32.062;34.834;2023-07-30T12:23:16;99935.84;;;28.84;58.29
75938;BME280;64615;32.062;34.834;2023-07-30T12:25:42;99935.84;;;28.84;58.47
75938;BME280;64615;32.062;34.834;2023-07-30T12:28:07;99935.06;;;28.84;58.50
75938;BME280;64615;32.062;34.834;2023-07-30T12:30:33;99935.38;;;28.82;58.47
75938;BME280;64615;32.062;34.834;2023-07-30T12:33:00;99934.25;;;28.83;58.33
75938;BME280;64615;32.062;34.834;2023-07-30T12:35:26;99930.69;;;28.83;58.13
75938;BME280;64615;32.062;34.834;2023-07-30T12:37:52;99924.09;;;28.84;58.35
75938;BME280;64615;32.062;34.834;2023-07-30T12:40:17;99924.88;;;28.84;58.13
75938;BME280;64615;32.062;34.834;2023-07-30T12:42:43;99925.69;;;28.85;58.43
75938;BME280;64615;32.062;34.834;2023-07-30T12:45:09;99915.53;;;28.85;58.22